Montrose, AL (36559)

2:20 PM CST on December 08, 2016 (GMT -0600)
S/V Grace | | Change Station

Elev 38 ft 30.59 °N, 87.91 °W | Updated 50 seconds ago

Overcast
Overcast
51.8 °F
Feels Like 51.8 °F
N
0.0
Wind Variable Wind from NNW
Gusts 0.0 mph

Today
High -- | Low -- °F
--% Chance of Precip.
Yesterday
High -- | Low -- °F
Precip. -- in
Pressure 30.27 in
Visibility 10.0 miles
Clouds Overcast 6500 ft
Dew Point 42 °F
Humidity 69%
Rainfall 0.00 in
Snow Depth Not available.
6:36 AM 4:50 PM
Waxing Gibbous, 66% visible
METAR KCQF 081955Z AUTO 02013G17KT 10SM OVC065 10/03 A3027 RMK AO2
Pressure 30.27 in
Visibility 10.0 miles
Clouds Overcast 6500 ft
Dew Point 42 °F
Humidity 69%
Rainfall 0.00 in
Snow Depth Not available.
6:36 AM 4:50 PM
Waxing Gibbous, 66% visible
METAR KCQF 081955Z AUTO 02013G17KT 10SM OVC065 10/03 A3027 RMK AO2

10-Day Weather Forecast

Almanac

Astronomy

Dec. 08, 2016 Rise Set
Actual Time
Civil Twilight
Nautical Twilight
Astronomical Twilight
Moon
Length of Visible Light
Length of Day
Tomorrow will be .
, % of the Moon is Illuminated

Today's Extremes

State Highs State Lows

Community

WunderPhotos

Upload Photos

1,956,277 photos uploaded!

WunderBlog® & News

Nearby

Air Quality

  Air Quality AQ Index Pollutant
Not available.

Snow Depth

Station Depth Elevation

Earthquake Activity

City Distance Mag. Time & Date
Minimum magnitude displayed is 2.5.

Coastal Water Temperatures

Place Temperature

Stations

Nearby Weather Stations

Station Location Temp. Windchill Dew Point Humidity Wind Precip. Elev Updated Type
                   

Watches & Warnings

There are currently no watches in effect.